sensor_id;sensor_type;location;lat;lon;timestamp;temperature;humidity
54540;SHT30;40438;52.992;18.604;2023-01-30T00:00:49;18.57;56.30
54540;SHT30;40438;52.992;18.604;2023-01-30T00:03:15;18.53;56.38
54540;SHT30;40438;52.992;18.604;2023-01-30T00:05:41;18.57;56.42
54540;SHT30;40438;52.992;18.604;2023-01-30T00:08:08;18.60;56.65
54540;SHT30;40438;52.992;18.604;2023-01-30T00:10:34;18.54;56.50
54540;SHT30;40438;52.992;18.604;2023-01-30T00:12:59;18.61;56.67
54540;SHT30;40438;52.992;18.604;2023-01-30T00:15:25;18.64;56.32
54540;SHT30;40438;52.992;18.604;2023-01-30T00:17:51;18.63;56.34
54540;SHT30;40438;52.992;18.604;2023-01-30T00:20:17;18.60;56.54
54540;SHT30;40438;52.992;18.604;2023-01-30T00:22:43;18.54;55.99
54540;SHT30;40438;52.992;18.604;2023-01-30T00:25:10;18.59;56.60
54540;SHT30;40438;52.992;18.604;2023-01-30T00:27:36;18.43;56.86
54540;SHT30;40438;52.992;18.604;2023-01-30T00:30:02;18.50;56.55
54540;SHT30;40438;52.992;18.604;2023-01-30T00:32:29;18.33;56.43
54540;SHT30;40438;52.992;18.604;2023-01-30T00:34:56;18.43;56.41
54540;SHT30;40438;52.992;18.604;2023-01-30T00:37:22;18.57;55.94
54540;SHT30;40438;52.992;18.604;2023-01-30T00:39:48;18.54;56.13
54540;SHT30;40438;52.992;18.604;2023-01-30T00:42:15;18.49;56.23
54540;SHT30;40438;52.992;18.604;2023-01-30T00:44:41;18.50;56.23
54540;SHT30;40438;52.992;18.604;2023-01-30T00:47:07;18.59;55.99
54540;SHT30;40438;52.992;18.604;2023-01-30T00:49:33;18.47;55.95
54540;SHT30;40438;52.992;18.604;2023-01-30T00:51:59;18.40;56.15
54540;SHT30;40438;52.992;18.604;2023-01-30T00:54:25;18.53;55.82
54540;SHT30;40438;52.992;18.604;2023-01-30T00:56:51;18.44;55.85
54540;SHT30;40438;52.992;18.604;2023-01-30T00:59:18;18.42;56.04
54540;SHT30;40438;52.992;18.604;2023-01-30T01:01:44;18.26;56.57
54540;SHT30;40438;52.992;18.604;2023-01-30T01:04:10;18.42;56.43
54540;SHT30;40438;52.992;18.604;2023-01-30T01:06:36;18.42;56.10
54540;SHT30;40438;52.992;18.604;2023-01-30T01:09:02;18.50;56.21
54540;SHT30;40438;52.992;18.604;2023-01-30T01:11:28;18.50;55.88
54540;SHT30;40438;52.992;18.604;2023-01-30T01:13:55;18.33;56.18
54540;SHT30;40438;52.992;18.604;2023-01-30T01:16:23;18.40;55.85
54540;SHT30;40438;52.992;18.604;2023-01-30T01:18:50;18.46;55.85
54540;SHT30;40438;52.992;18.604;2023-01-30T01:21:17;18.46;55.75
54540;SHT30;40438;52.992;18.604;2023-01-30T01:23:44;18.44;56.20
54540;SHT30;40438;52.992;18.604;2023-01-30T01:26:13;18.39;56.26
54540;SHT30;40438;52.992;18.604;2023-01-30T01:28:39;18.39;56.15
54540;SHT30;40438;52.992;18.604;2023-01-30T01:31:09;18.33;55.88
54540;SHT30;40438;52.992;18.604;2023-01-30T01:33:36;18.36;56.12
54540;SHT30;40438;52.992;18.604;2023-01-30T01:36:02;18.36;56.07
54540;SHT30;40438;52.992;18.604;2023-01-30T01:38:28;18.42;56.07
54540;SHT30;40438;52.992;18.604;2023-01-30T01:40:54;18.26;55.92
54540;SHT30;40438;52.992;18.604;2023-01-30T01:43:21;18.43;56.01
54540;SHT30;40438;52.992;18.604;2023-01-30T01:45:49;18.32;55.86
54540;SHT30;40438;52.992;18.604;2023-01-30T01:48:20;18.36;56.11
54540;SHT30;40438;52.992;18.604;2023-01-30T01:50:51;18.32;56.01
54540;SHT30;40438;52.992;18.604;2023-01-30T01:53:20;18.37;55.80
54540;SHT30;40438;52.992;18.604;2023-01-30T01:55:50;18.27;55.88
54540;SHT30;40438;52.992;18.604;2023-01-30T01:58:21;18.20;55.74
54540;SHT30;40438;52.992;18.604;2023-01-30T02:00:48;18.30;55.65
54540;SHT30;40438;52.992;18.604;2023-01-30T02:03:18;18.13;55.79
54540;SHT30;40438;52.992;18.604;2023-01-30T02:05:49;18.27;55.91
54540;SHT30;40438;52.992;18.604;2023-01-30T02:08:17;18.23;55.73
54540;SHT30;40438;52.992;18.604;2023-01-30T02:10:51;18.26;55.51
54540;SHT30;40438;52.992;18.604;2023-01-30T02:13:18;18.26;55.32
54540;SHT30;40438;52.992;18.604;2023-01-30T02:15:46;18.26;55.68
54540;SHT30;40438;52.992;18.604;2023-01-30T02:18:13;18.22;55.59
54540;SHT30;40438;52.992;18.604;2023-01-30T02:20:53;18.19;55.33
54540;SHT30;40438;52.992;18.604;2023-01-30T02:23:43;18.15;55.50
54540;SHT30;40438;52.992;18.604;2023-01-30T02:30:08;18.04;55.56
54540;SHT30;40438;52.992;18.604;2023-01-30T02:32:45;18.01;55.68
54540;SHT30;40438;52.992;18.604;2023-01-30T02:35:23;18.10;55.52
54540;SHT30;40438;52.992;18.604;2023-01-30T02:38:00;18.16;55.41
54540;SHT30;40438;52.992;18.604;2023-01-30T02:40:39;18.23;55.03
54540;SHT30;40438;52.992;18.604;2023-01-30T02:43:14;18.23;55.02
54540;SHT30;40438;52.992;18.604;2023-01-30T02:45:46;18.20;55.06
54540;SHT30;40438;52.992;18.604;2023-01-30T02:48:21;18.22;54.76
54540;SHT30;40438;52.992;18.604;2023-01-30T02:50:54;18.20;55.06
54540;SHT30;40438;52.992;18.604;2023-01-30T02:53:22;18.19;55.13
54540;SHT30;40438;52.992;18.604;2023-01-30T02:55:48;18.16;55.01
54540;SHT30;40438;52.992;18.604;2023-01-30T02:58:15;18.06;55.47
54540;SHT30;40438;52.992;18.604;2023-01-30T03:00:58;18.12;55.06
54540;SHT30;40438;52.992;18.604;2023-01-30T03:03:40;18.09;55.17
54540;SHT30;40438;52.992;18.604;2023-01-30T03:06:30;18.17;54.91
54540;SHT30;40438;52.992;18.604;2023-01-30T03:09:07;17.88;55.14
54540;SHT30;40438;52.992;18.604;2023-01-30T03:11:43;17.82;55.00
54540;SHT30;40438;52.992;18.604;2023-01-30T03:14:18;17.82;54.96
54540;SHT30;40438;52.992;18.604;2023-01-30T03:16:45;17.85;55.30
54540;SHT30;40438;52.992;18.604;2023-01-30T03:19:13;17.82;55.13
54540;SHT30;40438;52.992;18.604;2023-01-30T03:21:40;17.89;55.01
54540;SHT30;40438;52.992;18.604;2023-01-30T03:24:06;17.99;54.65
54540;SHT30;40438;52.992;18.604;2023-01-30T03:26:35;17.94;53.91
54540;SHT30;40438;52.992;18.604;2023-01-30T03:29:02;17.86;53.79
54540;SHT30;40438;52.992;18.604;2023-01-30T03:31:29;17.88;53.91
54540;SHT30;40438;52.992;18.604;2023-01-30T03:33:54;17.94;54.14
54540;SHT30;40438;52.992;18.604;2023-01-30T03:36:22;17.85;54.12
54540;SHT30;40438;52.992;18.604;2023-01-30T03:38:50;17.98;54.55
54540;SHT30;40438;52.992;18.604;2023-01-30T03:41:16;17.91;53.88
54540;SHT30;40438;52.992;18.604;2023-01-30T03:43:42;17.95;54.72
54540;SHT30;40438;52.992;18.604;2023-01-30T03:46:08;17.89;54.58
54540;SHT30;40438;52.992;18.604;2023-01-30T03:48:34;17.89;54.44
54540;SHT30;40438;52.992;18.604;2023-01-30T03:51:00;17.89;54.77
54540;SHT30;40438;52.992;18.604;2023-01-30T03:53:27;17.95;54.54
54540;SHT30;40438;52.992;18.604;2023-01-30T03:55:53;18.01;54.49
54540;SHT30;40438;52.992;18.604;2023-01-30T03:58:24;17.94;54.26
54540;SHT30;40438;52.992;18.604;2023-01-30T04:00:50;18.34;53.79
54540;SHT30;40438;52.992;18.604;2023-01-30T04:03:16;17.99;53.46
54540;SHT30;40438;52.992;18.604;2023-01-30T04:05:42;18.29;52.91
54540;SHT30;40438;52.992;18.604;2023-01-30T04:08:08;18.87;52.29
54540;SHT30;40438;52.992;18.604;2023-01-30T04:10:36;19.08;51.75
54540;SHT30;40438;52.992;18.604;2023-01-30T04:13:02;19.22;51.10
54540;SHT30;40438;52.992;18.604;2023-01-30T04:15:30;19.29;50.87
54540;SHT30;40438;52.992;18.604;2023-01-30T04:18:13;19.28;50.27
54540;SHT30;40438;52.992;18.604;2023-01-30T04:20:49;19.39;50.01
54540;SHT30;40438;52.992;18.604;2023-01-30T04:23:19;19.42;49.80
54540;SHT30;40438;52.992;18.604;2023-01-30T04:25:47;19.46;49.49
54540;SHT30;40438;52.992;18.604;2023-01-30T04:28:15;19.45;49.55
54540;SHT30;40438;52.992;18.604;2023-01-30T04:30:42;19.36;49.79
54540;SHT30;40438;52.992;18.604;2023-01-30T04:33:34;19.41;50.21
54540;SHT30;40438;52.992;18.604;2023-01-30T04:36:04;19.50;49.48
54540;SHT30;40438;52.992;18.604;2023-01-30T04:38:31;19.49;49.37
54540;SHT30;40438;52.992;18.604;2023-01-30T04:40:59;19.53;48.75
54540;SHT30;40438;52.992;18.604;2023-01-30T04:43:28;19.46;49.63
54540;SHT30;40438;52.992;18.604;2023-01-30T04:46:20;19.47;49.59
54540;SHT30;40438;52.992;18.604;2023-01-30T04:48:46;19.53;48.47
54540;SHT30;40438;52.992;18.604;2023-01-30T04:51:12;19.45;49.38
54540;SHT30;40438;52.992;18.604;2023-01-30T04:53:38;19.39;49.56
54540;SHT30;40438;52.992;18.604;2023-01-30T04:56:06;19.50;49.03
54540;SHT30;40438;52.992;18.604;2023-01-30T04:58:32;19.66;48.08
54540;SHT30;40438;52.992;18.604;2023-01-30T05:01:11;19.49;48.79
54540;SHT30;40438;52.992;18.604;2023-01-30T05:03:37;19.50;48.94
54540;SHT30;40438;52.992;18.604;2023-01-30T05:06:03;19.64;48.18
54540;SHT30;40438;52.992;18.604;2023-01-30T05:08:29;19.59;48.36
54540;SHT30;40438;52.992;18.604;2023-01-30T05:10:56;19.53;48.87
54540;SHT30;40438;52.992;18.604;2023-01-30T05:13:23;19.46;49.24
54540;SHT30;40438;52.992;18.604;2023-01-30T05:15:49;19.49;49.03
54540;SHT30;40438;52.992;18.604;2023-01-30T05:18:15;19.50;48.89
54540;SHT30;40438;52.992;18.604;2023-01-30T05:20:40;19.39;49.27
54540;SHT30;40438;52.992;18.604;2023-01-30T05:23:06;19.49;49.11
54540;SHT30;40438;52.992;18.604;2023-01-30T05:25:32;19.43;49.51
54540;SHT30;40438;52.992;18.604;2023-01-30T05:27:58;19.66;48.97
54540;SHT30;40438;52.992;18.604;2023-01-30T05:30:25;19.56;49.15
54540;SHT30;40438;52.992;18.604;2023-01-30T05:32:50;19.60;49.02
54540;SHT30;40438;52.992;18.604;2023-01-30T05:35:16;19.54;49.37
54540;SHT30;40438;52.992;18.604;2023-01-30T05:37:42;19.71;48.50
54540;SHT30;40438;52.992;18.604;2023-01-30T05:40:09;19.73;48.62
54540;SHT30;40438;52.992;18.604;2023-01-30T05:42:35;19.70;48.88
54540;SHT30;40438;52.992;18.604;2023-01-30T05:45:00;19.60;48.67
54540;SHT30;40438;52.992;18.604;2023-01-30T05:47:28;19.59;49.26
54540;SHT30;40438;52.992;18.604;2023-01-30T05:49:53;19.67;48.41
54540;SHT30;40438;52.992;18.604;2023-01-30T05:52:19;19.66;48.95
54540;SHT30;40438;52.992;18.604;2023-01-30T05:54:45;19.56;49.73
54540;SHT30;40438;52.992;18.604;2023-01-30T05:57:11;19.52;49.54
54540;SHT30;40438;52.992;18.604;2023-01-30T05:59:37;19.49;49.65
54540;SHT30;40438;52.992;18.604;2023-01-30T06:02:03;19.60;48.68
54540;SHT30;40438;52.992;18.604;2023-01-30T06:04:30;19.57;48.86
54540;SHT30;40438;52.992;18.604;2023-01-30T06:06:56;19.49;49.30
54540;SHT30;40438;52.992;18.604;2023-01-30T06:09:22;19.49;49.06
54540;SHT30;40438;52.992;18.604;2023-01-30T06:11:48;19.50;48.97
54540;SHT30;40438;52.992;18.604;2023-01-30T06:14:13;19.50;49.13
54540;SHT30;40438;52.992;18.604;2023-01-30T06:16:39;19.52;49.26
54540;SHT30;40438;52.992;18.604;2023-01-30T06:19:05;19.50;48.49
54540;SHT30;40438;52.992;18.604;2023-01-30T06:21:32;19.47;49.38
54540;SHT30;40438;52.992;18.604;2023-01-30T06:23:58;19.46;49.32
54540;SHT30;40438;52.992;18.604;2023-01-30T06:26:24;19.49;48.68
54540;SHT30;40438;52.992;18.604;2023-01-30T06:28:49;19.53;48.73
54540;SHT30;40438;52.992;18.604;2023-01-30T06:31:15;19.52;48.63
54540;SHT30;40438;52.992;18.604;2023-01-30T06:33:41;19.49;49.04
54540;SHT30;40438;52.992;18.604;2023-01-30T06:36:07;19.45;49.38
54540;SHT30;40438;52.992;18.604;2023-01-30T06:38:34;19.47;49.36
54540;SHT30;40438;52.992;18.604;2023-01-30T06:41:00;19.49;49.03
54540;SHT30;40438;52.992;18.604;2023-01-30T06:43:26;19.50;49.19
54540;SHT30;40438;52.992;18.604;2023-01-30T06:45:52;19.49;49.22
54540;SHT30;40438;52.992;18.604;2023-01-30T06:48:18;19.56;48.79
54540;SHT30;40438;52.992;18.604;2023-01-30T06:50:45;19.49;49.46
54540;SHT30;40438;52.992;18.604;2023-01-30T06:53:11;19.57;48.69
54540;SHT30;40438;52.992;18.604;2023-01-30T06:55:38;19.56;48.33
54540;SHT30;40438;52.992;18.604;2023-01-30T06:58:05;19.63;48.61
54540;SHT30;40438;52.992;18.604;2023-01-30T07:00:32;19.57;48.96
54540;SHT30;40438;52.992;18.604;2023-01-30T07:02:58;19.60;48.84
54540;SHT30;40438;52.992;18.604;2023-01-30T07:05:24;19.59;48.89
54540;SHT30;40438;52.992;18.604;2023-01-30T07:07:50;19.57;49.02
54540;SHT30;40438;52.992;18.604;2023-01-30T07:10:16;19.63;48.49
54540;SHT30;40438;52.992;18.604;2023-01-30T07:12:44;19.64;48.84
54540;SHT30;40438;52.992;18.604;2023-01-30T07:15:10;19.74;48.52
54540;SHT30;40438;52.992;18.604;2023-01-30T07:17:36;19.71;48.61
54540;SHT30;40438;52.992;18.604;2023-01-30T07:20:01;19.57;49.22
54540;SHT30;40438;52.992;18.604;2023-01-30T07:22:27;19.70;49.78
54540;SHT30;40438;52.992;18.604;2023-01-30T07:24:53;19.85;47.75
54540;SHT30;40438;52.992;18.604;2023-01-30T07:27:19;19.78;48.49
54540;SHT30;40438;52.992;18.604;2023-01-30T07:29:46;19.69;48.72
54540;SHT30;40438;52.992;18.604;2023-01-30T07:32:14;19.84;48.46
54540;SHT30;40438;52.992;18.604;2023-01-30T07:34:40;19.84;48.35
54540;SHT30;40438;52.992;18.604;2023-01-30T07:37:06;19.85;47.85
54540;SHT30;40438;52.992;18.604;2023-01-30T07:39:32;19.78;48.70
54540;SHT30;40438;52.992;18.604;2023-01-30T07:41:59;19.83;48.06
54540;SHT30;40438;52.992;18.604;2023-01-30T07:44:25;19.78;48.61
54540;SHT30;40438;52.992;18.604;2023-01-30T07:46:52;19.80;48.76
54540;SHT30;40438;52.992;18.604;2023-01-30T07:49:18;19.78;48.37
54540;SHT30;40438;52.992;18.604;2023-01-30T07:51:44;19.85;48.21
54540;SHT30;40438;52.992;18.604;2023-01-30T07:54:10;19.84;47.80
54540;SHT30;40438;52.992;18.604;2023-01-30T07:56:36;19.77;48.90
54540;SHT30;40438;52.992;18.604;2023-01-30T07:59:02;19.85;49.32
54540;SHT30;40438;52.992;18.604;2023-01-30T08:01:28;19.94;48.11
54540;SHT30;40438;52.992;18.604;2023-01-30T08:03:55;19.87;47.86
54540;SHT30;40438;52.992;18.604;2023-01-30T08:06:21;19.77;48.95
54540;SHT30;40438;52.992;18.604;2023-01-30T08:08:47;19.75;48.84
54540;SHT30;40438;52.992;18.604;2023-01-30T08:11:12;19.67;49.04
54540;SHT30;40438;52.992;18.604;2023-01-30T08:13:38;19.63;49.42
54540;SHT30;40438;52.992;18.604;2023-01-30T08:16:05;19.66;49.07
54540;SHT30;40438;52.992;18.604;2023-01-30T08:18:32;19.77;49.05
54540;SHT30;40438;52.992;18.604;2023-01-30T08:21:01;19.64;49.19
54540;SHT30;40438;52.992;18.604;2023-01-30T08:23:27;19.66;49.52
54540;SHT30;40438;52.992;18.604;2023-01-30T08:25:53;19.64;49.31
54540;SHT30;40438;52.992;18.604;2023-01-30T08:28:19;19.66;49.40
54540;SHT30;40438;52.992;18.604;2023-01-30T08:30:45;19.66;49.30
54540;SHT30;40438;52.992;18.604;2023-01-30T08:33:10;19.66;49.74
54540;SHT30;40438;52.992;18.604;2023-01-30T08:35:36;19.67;49.80
54540;SHT30;40438;52.992;18.604;2023-01-30T08:38:06;19.69;49.12
54540;SHT30;40438;52.992;18.604;2023-01-30T08:40:31;19.70;49.41
54540;SHT30;40438;52.992;18.604;2023-01-30T08:42:57;19.69;49.17
54540;SHT30;40438;52.992;18.604;2023-01-30T08:45:23;19.71;49.18
54540;SHT30;40438;52.992;18.604;2023-01-30T08:47:49;19.70;49.32
54540;SHT30;40438;52.992;18.604;2023-01-30T08:50:15;19.84;48.64
54540;SHT30;40438;52.992;18.604;2023-01-30T08:52:41;19.77;48.66
54540;SHT30;40438;52.992;18.604;2023-01-30T08:55:09;19.88;48.25
54540;SHT30;40438;52.992;18.604;2023-01-30T08:57:34;19.88;48.71
54540;SHT30;40438;52.992;18.604;2023-01-30T09:00:01;19.91;48.58
54540;SHT30;40438;52.992;18.604;2023-01-30T09:02:27;19.80;48.97
54540;SHT30;40438;52.992;18.604;2023-01-30T09:04:53;19.87;49.02
54540;SHT30;40438;52.992;18.604;2023-01-30T09:07:19;20.01;48.90
54540;SHT30;40438;52.992;18.604;2023-01-30T09:09:44;20.04;48.31
54540;SHT30;40438;52.992;18.604;2023-01-30T09:12:11;20.10;48.68
54540;SHT30;40438;52.992;18.604;2023-01-30T09:14:37;20.00;49.17
54540;SHT30;40438;52.992;18.604;2023-01-30T09:17:03;20.00;48.91
54540;SHT30;40438;52.992;18.604;2023-01-30T09:19:29;20.12;48.43
54540;SHT30;40438;52.992;18.604;2023-01-30T09:21:55;20.11;49.32
54540;SHT30;40438;52.992;18.604;2023-01-30T09:24:22;20.18;49.33
54540;SHT30;40438;52.992;18.604;2023-01-30T09:26:48;20.17;48.80
54540;SHT30;40438;52.992;18.604;2023-01-30T09:29:15;20.08;49.11
54540;SHT30;40438;52.992;18.604;2023-01-30T09:31:41;20.04;49.06
54540;SHT30;40438;52.992;18.604;2023-01-30T09:34:07;20.04;48.64
54540;SHT30;40438;52.992;18.604;2023-01-30T09:36:32;19.93;49.24
54540;SHT30;40438;52.992;18.604;2023-01-30T09:38:58;19.98;48.54
54540;SHT30;40438;52.992;18.604;2023-01-30T09:41:41;20.03;49.21
54540;SHT30;40438;52.992;18.604;2023-01-30T09:44:30;20.46;49.60
54540;SHT30;40438;52.992;18.604;2023-01-30T09:47:06;21.15;47.69
54540;SHT30;40438;52.992;18.604;2023-01-30T09:49:37;21.51;47.18
54540;SHT30;40438;52.992;18.604;2023-01-30T09:52:17;21.63;46.98
54540;SHT30;40438;52.992;18.604;2023-01-30T09:54:46;21.35;46.91
54540;SHT30;40438;52.992;18.604;2023-01-30T09:57:16;21.13;47.66
54540;SHT30;40438;52.992;18.604;2023-01-30T09:59:54;20.93;47.30
54540;SHT30;40438;52.992;18.604;2023-01-30T10:02:32;20.86;47.72
54540;SHT30;40438;52.992;18.604;2023-01-30T10:05:00;20.77;47.61
54540;SHT30;40438;52.992;18.604;2023-01-30T10:07:31;20.97;47.41
54540;SHT30;40438;52.992;18.604;2023-01-30T10:10:06;20.99;47.73
54540;SHT30;40438;52.992;18.604;2023-01-30T10:12:41;20.90;47.27
54540;SHT30;40438;52.992;18.604;2023-01-30T10:15:32;20.76;47.54
54540;SHT30;40438;52.992;18.604;2023-01-30T10:18:15;20.73;47.60
54540;SHT30;40438;52.992;18.604;2023-01-30T10:20:50;20.73;47.11
54540;SHT30;40438;52.992;18.604;2023-01-30T10:23:25;20.87;47.12
54540;SHT30;40438;52.992;18.604;2023-01-30T10:25:57;20.84;47.29
54540;SHT30;40438;52.992;18.604;2023-01-30T10:28:28;20.77;47.03
54540;SHT30;40438;52.992;18.604;2023-01-30T10:31:01;20.69;47.34
54540;SHT30;40438;52.992;18.604;2023-01-30T10:33:31;20.73;47.14
54540;SHT30;40438;52.992;18.604;2023-01-30T10:36:02;20.68;47.20
54540;SHT30;40438;52.992;18.604;2023-01-30T10:38:34;20.76;46.83
54540;SHT30;40438;52.992;18.604;2023-01-30T10:41:07;20.75;46.58
54540;SHT30;40438;52.992;18.604;2023-01-30T10:43:38;20.70;46.85
54540;SHT30;40438;52.992;18.604;2023-01-30T10:46:15;20.51;46.73
54540;SHT30;40438;52.992;18.604;2023-01-30T10:48:51;20.64;46.91
54540;SHT30;40438;52.992;18.604;2023-01-30T10:54:11;20.63;46.80
54540;SHT30;40438;52.992;18.604;2023-01-30T10:56:42;20.57;46.57
54540;SHT30;40438;52.992;18.604;2023-01-30T10:59:23;20.56;46.73
54540;SHT30;40438;52.992;18.604;2023-01-30T11:02:01;20.46;46.09
54540;SHT30;40438;52.992;18.604;2023-01-30T11:04:37;20.48;46.14
54540;SHT30;40438;52.992;18.604;2023-01-30T11:07:05;20.41;46.54
54540;SHT30;40438;52.992;18.604;2023-01-30T11:09:39;20.39;46.11
54540;SHT30;40438;52.992;18.604;2023-01-30T11:12:08;20.38;46.38
54540;SHT30;40438;52.992;18.604;2023-01-30T11:14:55;20.28;46.80
54540;SHT30;40438;52.992;18.604;2023-01-30T11:17:29;20.29;47.04
54540;SHT30;40438;52.992;18.604;2023-01-30T11:20:00;20.26;47.20
54540;SHT30;40438;52.992;18.604;2023-01-30T11:22:27;20.22;47.23
54540;SHT30;40438;52.992;18.604;2023-01-30T11:25:03;20.22;47.12
54540;SHT30;40438;52.992;18.604;2023-01-30T11:27:31;20.15;47.24
54540;SHT30;40438;52.992;18.604;2023-01-30T11:30:06;20.12;47.45
54540;SHT30;40438;52.992;18.604;2023-01-30T11:32:33;20.11;47.36
54540;SHT30;40438;52.992;18.604;2023-01-30T11:35:15;20.07;47.38
54540;SHT30;40438;52.992;18.604;2023-01-30T11:37:44;20.03;47.48
54540;SHT30;40438;52.992;18.604;2023-01-30T11:40:21;20.00;47.63
54540;SHT30;40438;52.992;18.604;2023-01-30T11:42:50;19.90;47.77
54540;SHT30;40438;52.992;18.604;2023-01-30T11:45:17;19.59;48.10
54540;SHT30;40438;52.992;18.604;2023-01-30T11:47:50;19.50;48.23
54540;SHT30;40438;52.992;18.604;2023-01-30T11:50:17;19.42;48.34
54540;SHT30;40438;52.992;18.604;2023-01-30T11:52:44;19.39;48.61
54540;SHT30;40438;52.992;18.604;2023-01-30T11:55:13;19.28;48.62
54540;SHT30;40438;52.992;18.604;2023-01-30T11:57:40;19.18;48.55
54540;SHT30;40438;52.992;18.604;2023-01-30T12:00:13;19.16;48.82
54540;SHT30;40438;52.992;18.604;2023-01-30T12:02:42;19.52;48.73
54540;SHT30;40438;52.992;18.604;2023-01-30T12:05:21;19.87;47.92
54540;SHT30;40438;52.992;18.604;2023-01-30T12:07:50;19.98;48.23
54540;SHT30;40438;52.992;18.604;2023-01-30T12:10:26;20.07;47.93
54540;SHT30;40438;52.992;18.604;2023-01-30T12:12:54;20.05;47.86
54540;SHT30;40438;52.992;18.604;2023-01-30T12:15:23;20.07;47.95
54540;SHT30;40438;52.992;18.604;2023-01-30T12:17:57;20.14;48.03
54540;SHT30;40438;52.992;18.604;2023-01-30T12:20:40;20.18;47.66
54540;SHT30;40438;52.992;18.604;2023-01-30T12:23:12;20.17;48.22
54540;SHT30;40438;52.992;18.604;2023-01-30T12:25:43;20.26;47.90
54540;SHT30;40438;52.992;18.604;2023-01-30T12:28:19;20.29;47.52
54540;SHT30;40438;52.992;18.604;2023-01-30T12:30:49;20.29;47.59
54540;SHT30;40438;52.992;18.604;2023-01-30T12:33:16;20.33;47.35
54540;SHT30;40438;52.992;18.604;2023-01-30T12:35:58;20.33;47.85
54540;SHT30;40438;52.992;18.604;2023-01-30T12:38:40;20.39;47.63
54540;SHT30;40438;52.992;18.604;2023-01-30T12:41:27;20.32;47.61
54540;SHT30;40438;52.992;18.604;2023-01-30T12:44:09;20.35;47.56
54540;SHT30;40438;52.992;18.604;2023-01-30T12:46:41;20.41;47.38
54540;SHT30;40438;52.992;18.604;2023-01-30T12:49:27;20.42;47.86
54540;SHT30;40438;52.992;18.604;2023-01-30T12:52:08;20.36;48.35
54540;SHT30;40438;52.992;18.604;2023-01-30T12:54:45;20.33;48.03
54540;SHT30;40438;52.992;18.604;2023-01-30T12:57:23;20.79;47.18
54540;SHT30;40438;52.992;18.604;2023-01-30T13:00:00;21.01;46.79
54540;SHT30;40438;52.992;18.604;2023-01-30T13:02:45;21.06;46.73
54540;SHT30;40438;52.992;18.604;2023-01-30T13:05:22;21.15;46.89
54540;SHT30;40438;52.992;18.604;2023-01-30T13:08:04;21.18;46.71
54540;SHT30;40438;52.992;18.604;2023-01-30T13:10:35;20.94;46.85
54540;SHT30;40438;52.992;18.604;2023-01-30T13:13:12;20.77;47.41
54540;SHT30;40438;52.992;18.604;2023-01-30T13:15:44;20.73;47.39
54540;SHT30;40438;52.992;18.604;2023-01-30T13:18:14;20.75;47.21
54540;SHT30;40438;52.992;18.604;2023-01-30T13:20:49;21.31;46.68
54540;SHT30;40438;52.992;18.604;2023-01-30T13:23:21;21.35;46.32
54540;SHT30;40438;52.992;18.604;2023-01-30T13:25:57;21.28;46.50
54540;SHT30;40438;52.992;18.604;2023-01-30T13:28:27;21.08;47.41
54540;SHT30;40438;52.992;18.604;2023-01-30T13:30:56;20.87;47.04
54540;SHT30;40438;52.992;18.604;2023-01-30T13:33:26;20.77;46.93
54540;SHT30;40438;52.992;18.604;2023-01-30T13:35:55;20.87;47.38
54540;SHT30;40438;52.992;18.604;2023-01-30T13:38:27;21.03;46.37
54540;SHT30;40438;52.992;18.604;2023-01-30T13:40:56;20.83;46.77
54540;SHT30;40438;52.992;18.604;2023-01-30T13:43:26;20.68;46.62
54540;SHT30;40438;52.992;18.604;2023-01-30T13:45:54;20.70;47.12
54540;SHT30;40438;52.992;18.604;2023-01-30T13:48:36;20.83;47.23
54540;SHT30;40438;52.992;18.604;2023-01-30T13:51:21;20.89;46.98
54540;SHT30;40438;52.992;18.604;2023-01-30T13:53:54;20.94;46.14
54540;SHT30;40438;52.992;18.604;2023-01-30T13:56:29;21.01;45.40
54540;SHT30;40438;52.992;18.604;2023-01-30T13:59:00;21.13;45.80
54540;SHT30;40438;52.992;18.604;2023-01-30T14:04:43;21.66;46.40
54540;SHT30;40438;52.992;18.604;2023-01-30T14:07:11;21.80;46.47
54540;SHT30;40438;52.992;18.604;2023-01-30T14:09:41;21.82;45.72
54540;SHT30;40438;52.992;18.604;2023-01-30T14:12:16;21.44;45.86
54540;SHT30;40438;52.992;18.604;2023-01-30T14:14:56;21.18;45.75
54540;SHT30;40438;52.992;18.604;2023-01-30T14:17:23;21.08;45.69
54540;SHT30;40438;52.992;18.604;2023-01-30T14:19:57;21.21;45.49
54540;SHT30;40438;52.992;18.604;2023-01-30T14:22:27;21.13;44.98
54540;SHT30;40438;52.992;18.604;2023-01-30T14:35:01;20.75;45.93
54540;SHT30;40438;52.992;18.604;2023-01-30T14:37:49;20.73;46.47
54540;SHT30;40438;52.992;18.604;2023-01-30T14:40:31;20.69;46.59
54540;SHT30;40438;52.992;18.604;2023-01-30T14:43:26;20.64;46.38
54540;SHT30;40438;52.992;18.604;2023-01-30T14:45:53;20.66;46.10
54540;SHT30;40438;52.992;18.604;2023-01-30T14:48:30;20.62;45.91
54540;SHT30;40438;52.992;18.604;2023-01-30T14:51:10;20.69;45.93
54540;SHT30;40438;52.992;18.604;2023-01-30T14:53:47;20.64;46.52
54540;SHT30;40438;52.992;18.604;2023-01-30T14:56:14;20.69;46.67
54540;SHT30;40438;52.992;18.604;2023-01-30T14:58:50;20.66;46.41
54540;SHT30;40438;52.992;18.604;2023-01-30T15:01:16;20.70;46.73
54540;SHT30;40438;52.992;18.604;2023-01-30T15:03:46;20.72;46.73
54540;SHT30;40438;52.992;18.604;2023-01-30T15:06:13;20.73;47.21
54540;SHT30;40438;52.992;18.604;2023-01-30T15:08:40;20.77;47.31
54540;SHT30;40438;52.992;18.604;2023-01-30T15:11:12;20.83;47.13
54540;SHT30;40438;52.992;18.604;2023-01-30T15:13:49;20.79;46.22
54540;SHT30;40438;52.992;18.604;2023-01-30T15:16:33;20.68;46.33
54540;SHT30;40438;52.992;18.604;2023-01-30T15:19:18;19.73;44.13
54540;SHT30;40438;52.992;18.604;2023-01-30T15:21:58;20.42;46.78
54540;SHT30;40438;52.992;18.604;2023-01-30T15:27:29;20.55;45.41
54540;SHT30;40438;52.992;18.604;2023-01-30T15:30:04;20.48;45.32
54540;SHT30;40438;52.992;18.604;2023-01-30T15:32:33;21.06;45.50
54540;SHT30;40438;52.992;18.604;2023-01-30T15:35:11;20.94;45.15
54540;SHT30;40438;52.992;18.604;2023-01-30T15:37:46;20.75;45.57
54540;SHT30;40438;52.992;18.604;2023-01-30T15:40:20;20.80;46.18
54540;SHT30;40438;52.992;18.604;2023-01-30T15:42:48;20.56;46.02
54540;SHT30;40438;52.992;18.604;2023-01-30T15:45:20;20.56;45.57
54540;SHT30;40438;52.992;18.604;2023-01-30T15:48:02;20.57;45.86
54540;SHT30;40438;52.992;18.604;2023-01-30T15:50:32;20.59;45.80
54540;SHT30;40438;52.992;18.604;2023-01-30T15:52:58;20.59;46.03
54540;SHT30;40438;52.992;18.604;2023-01-30T15:55:26;20.59;45.77